Tiempo atmosférico en la estación meteorológica de Vilafranca Del Penedès, Barcelona (174 m.)



Fecha
DESCASC
Temp. máxima en grados centígrados (hora)
DESCASC
Temp. mínima en grados centígrados (hora)
DESCASC
Temp. media en grados centígrados
DESCASC
Racha de viento máxima en m/sg (hora)
DESCASC
Velocidad máxima media en intervalos de 10 minutos(hora)
DESCASC
Precipitaciones diarias en mm
DESCASC
Precipitaciones de 00:00 a 06:00 en mm
DESCASC
Precipitaciones de 06:00 a 12:00 en mm
DESCASC
Precipitaciones de 12:00 a 18:00 en mm
DESCASC
Precipitaciones de 18:00 a 24:00 en mm
DESCASC
22-01-2020 13.2 (16:00) 7.8 (07:10) 10.5 7.5 (00:50) 3.89 (00:50) 7.6 2.6 0 1.8 3.2
21-01-2020 11.3 (13:00) 6 (04:10) 8.7 16.94 (20:40) 8.33 (16:40) 80 11.8 22.4 13.4 32.4
20-01-2020 10.3 (13:20) 7.3 (22:00) 8.8 21.67 (21:30) 11.11 (22:10) 2.4 0 0 0 2.4
19-01-2020 11.2 (16:50) 6.8 (00:00) 9 11.39 (18:30) 6.39 (18:30) 0.4 0.2 0.2 0 0
18-01-2020 14.1 (14:30) 5 (00:00) 9.6 7.78 (14:40) 4.44 (14:40) 0 0 0 0 0
17-01-2020 16.8 (13:20) 2.8 (00:00) 9.8 11.67 (17:50) 5.56 (14:10) 0 0 0 0 0
16-01-2020 15.4 (15:40) 1.4 (00:00) 8.4 6.11 (14:40) 3.33 (14:30) 0 0 0 0 0
15-01-2020 14.9 (14:50) -0.9 (-00:0) 7 6.39 (17:10) 3.61 (17:00) 0 0 0 0 0
14-01-2020 14.8 (15:00) -0.9 (-00:0) 7 5 (16:50) 2.78 (16:30) 0 0 0 0 0
13-01-2020 12.3 (14:10) -1.8 (-00:0) 5.3 5 (14:50) 3.06 (15:40) 0 0 0 0 0
12-01-2020 13.9 (15:40) -1.6 (-00:0) 6.1 4.72 (13:10) 2.5 (13:10) 0 0 0 0 0
11-01-2020 10.5 (15:10) 0.3 (00:00) 5.4 7.5 (13:10) 4.72 (12:50) 0 0 0 0 0
10-01-2020 10.7 (15:40) 3.9 (00:00) 7.3 4.72 (07:00) 3.06 (11:00) 8.2 0.2 7.4 0.6 0
09-01-2020 13.4 (15:10) 1.1 (00:00) 7.2 5.83 (16:40) 3.33 (15:40) 0 0 0 0 0
08-01-2020 16.9 (15:50) 0.9 (00:00) 8.9 4.44 (16:00) 2.5 (16:40) 0 0 0 0 0
07-01-2020 13.3 (16:10) 0.7 (00:00) 7 4.17 (13:20) 2.22 (11:00) 0 0 0 0 0
06-01-2020 15.2 (15:30) 1.1 (00:00) 8.1 4.17 (16:10) 2.22 (16:10) 0 0 0 0 0
05-01-2020 13.5 (15:30) 2.4 (00:00) 8 8.06 (02:00) 4.72 (02:10) 0 0 0 0 0
04-01-2020 13.1 (15:10) 1.4 (00:00) 7.3 4.72 (06:40) 2.78 (16:40) 0 0 0 0 0
03-01-2020 8.8 (15:20) 1.7 (00:00) 5.3 7.5 (12:10) 5 (12:10) 0 0 0 0 0
02-01-2020 12.7 (15:40) -0.2 (00:00) 6.2 5.83 (15:40) 2.78 (15:40) 0 0 0 0 0
01-01-2020 11.7 (16:10) 0.9 (00:00) 6.3 5.56 (11:40) 3.61 (11:40) 0 0 0 0 0
31-12-2019 13.3 (15:40) 3.6 (00:00) 8.5 5.28 (15:10) 2.78 (15:20) 0 0 0 0 0
30-12-2019 13.8 (15:40) 4.3 (00:00) 9.1 5.28 (16:00) 2.78 (15:30) 0 0 0 0 0
29-12-2019 14.1 (15:50) 3.4 (00:00) 8.8 3.61 (17:00) 1.94 (14:50) 0 0 0 0 0
28-12-2019 15.1 (15:00) 1.8 (00:00) 8.5 3.89 (15:30) 2.5 (15:30) 0 0 0 0 0
27-12-2019 13.6 (16:00) 3.3 (00:00) 8.5 7.22 (16:30) 3.89 (11:10) 0 0 0 0 0
26-12-2019 16.9 (14:50) 5.1 (00:00) 11 4.72 (13:30) 2.78 (14:10) 0 0 0 0 0
25-12-2019 19.6 (15:50) 4.4 (00:00) 12 4.44 (10:30) 2.22 (09:50) 0 0 0 0 0

Gráficas

Temp. máximas Temp. mínimas Temp. medias Precipitaciones Rachas de viento máximas Velocidades máximas media en intervalos de 10 minutos

Datos horarios

Fecha y hora oficial Temperatura (ºC) Velocidad del viento (km/h) Dirección del viento Racha (km/h) Dirección de racha Precipitación (mm) Presión (hPa) Tendencia (hPa) Humedad (%)
2020-01-23 23:00:00 5.6 3 Nordeste 4 Nordeste 0 -- -- 97
2020-01-23 22:00:00 5.8 0 Calma 4 Norte 0 -- -- 96
2020-01-23 21:00:00 6.6 0 Calma 3 Noroeste 0 -- -- 95
2020-01-23 20:00:00 7.6 0 Calma 3 Noroeste 0 -- -- 92
2020-01-23 19:00:00 9.3 0 Calma 4 Sur 0 -- -- 88
2020-01-23 18:00:00 11.5 2 Sur 10 Sur 0 -- -- 77
2020-01-23 17:00:00 13.1 4 Sur 13 Sur 0 -- -- 64
2020-01-23 16:00:00 13.8 5 Sur 16 Sur 0 -- -- 65
2020-01-23 15:00:00 14 6 Sudoeste 15 Sudoeste 0 -- -- 70
2020-01-23 14:00:00 13.2 5 Oeste 11 Oeste 0 -- -- 74
2020-01-23 13:00:00 12.4 2 Sudoeste 10 Sur 0 -- -- 74
2020-01-23 12:00:00 11.5 5 Sudoeste 18 Oeste 0 -- -- 86
2020-01-23 11:00:00 9.2 0 Calma 6 Noroeste 0 -- -- 98
2020-01-23 10:00:00 8 3 Noroeste 4 Noroeste 0.4 -- -- 97
2020-01-23 09:00:00 8.1 3 Norte 14 Norte 0.6 -- -- 94
2020-01-23 08:00:00 8.2 4 Nordeste 17 Nordeste 0 -- -- 92
2020-01-23 07:00:00 8.6 10 Nordeste 19 Nordeste 0 -- -- 91
2020-01-23 06:00:00 8.4 5 Nordeste 10 Nordeste 0.2 -- -- 93
2020-01-23 05:00:00 8.9 4 Norte 28 Sudoeste 0.8 -- -- 92
2020-01-23 04:00:00 12.9 12 Sudeste 27 Nordeste 1.2 -- -- 96
2020-01-23 03:00:00 12.8 11 Nordeste 31 Nordeste 0.8 -- -- 96
2020-01-23 02:00:00 12.6 6 Nordeste 15 Nordeste 3.8 -- -- 94
2020-01-23 01:00:00 12.5 3 Este 15 Este 0.2 -- -- 94
2020-01-23 00:00:00 12.4 3 Nordeste 13 Sudeste 1.4 -- -- 96
2020-01-22 23:00:00 12.7 5 Este 24 Este 1.2 -- -- 94
2020-01-22 22:00:00 12.9 5 Este 15 Sudeste 0.2 -- -- 92
2020-01-22 21:00:00 12.7 4 Nordeste 16 Este 0.2 -- -- 94
2020-01-22 20:00:00 12.9 5 Nordeste 14 Este 0.2 -- -- 92
2020-01-22 19:00:00 12.8 5 Este 24 Este 0 -- -- 93
2020-01-22 18:00:00 12.9 5 Nordeste 15 Este 0.2 -- -- 93
2020-01-22 17:00:00 12.9 4 Este 20 Este 0.2 -- -- 94
2020-01-22 16:00:00 13.2 5 Nordeste 21 Nordeste 0 -- -- 93
2020-01-22 15:00:00 12.6 0 Calma 12 Norte 0.8 -- -- 97
2020-01-22 14:00:00 12.5 3 Nordeste 10 Norte 0.2 -- -- 96
2020-01-22 13:00:00 11.9 4 Norte 16 Norte 0.4 -- -- 97
2020-01-22 12:00:00 10.8 9 Norte 20 Norte 0 -- -- 93
2020-01-22 11:00:00 9.8 9 Norte 21 Norte 0 -- -- 89
2020-01-22 10:00:00 9 9 Norte 21 Norte 0 -- -- 90
2020-01-22 09:00:00 8.6 6 Nordeste 15 Norte 0 -- -- 92
2020-01-22 08:00:00 8.1 7 Norte 15 Nordeste 0 -- -- 94
2020-01-22 07:00:00 7.9 8 Norte 16 Norte 0 -- -- 94
2020-01-22 06:00:00 8.1 7 Nordeste 13 Norte 0 -- -- 94
2020-01-22 05:00:00 8.6 8 Norte 19 Norte 0 -- -- 92
2020-01-22 04:00:00 8.8 8 Norte 18 Norte 0 -- -- 92
2020-01-22 03:00:00 8.9 10 Norte 18 Norte 0 -- -- 94
2020-01-22 02:00:00 8.6 6 Norte 21 Noroeste 1.6 -- -- 96
2020-01-22 01:00:00 8.6 13 Norte 27 Norte 1 -- -- 95
2020-01-22 00:00:00 8.1 10 Norte 23 Norte 3 -- -- 97
2020-01-21 23:00:00 8.6 2 Este 36 Sudeste 10.8 -- -- 96
2020-01-21 22:00:00 9.9 16 Nordeste 45 Nordeste 8.6 -- -- 97
2020-01-21 21:00:00 9.9 22 Nordeste 61 Nordeste 6.4 -- -- 97
2020-01-21 20:00:00 10.3 28 Nordeste 56 Norte 1.2 -- -- 92
2020-01-21 19:00:00 10.4 26 Nordeste 50 Norte 2.4 -- -- 93
2020-01-21 18:00:00 10.3 24 Nordeste 48 Nordeste 2.4 -- -- 94
2020-01-21 17:00:00 10.4 27 Nordeste 58 Nordeste 2.2 -- -- 93
2020-01-21 16:00:00 10.6 24 Nordeste 59 Nordeste 2.2 -- -- 93
2020-01-21 15:00:00 11.3 24 Nordeste 48 Nordeste 1.4 -- -- 91
2020-01-21 14:00:00 11.2 25 Nordeste 50 Nordeste 2.2 -- -- 92
2020-01-21 13:00:00 11.3 26 Nordeste 53 Nordeste 3 -- -- 93
2020-01-21 12:00:00 10.1 20 Nordeste 44 Nordeste 3.4 -- -- 96
2020-01-21 11:00:00 9.2 17 Nordeste 47 Nordeste 4.6 -- -- 97
2020-01-21 10:00:00 8.6 22 Nordeste 53 Nordeste 5 -- -- 97
2020-01-21 09:00:00 8.3 25 Nordeste 51 Nordeste 4.2 -- -- 96
2020-01-21 08:00:00 8.4 21 Nordeste 49 Nordeste 3.2 -- -- 95
2020-01-21 07:00:00 7 20 Norte 40 Norte 2 -- -- 96
2020-01-21 06:00:00 6.7 20 Norte 40 Norte 2.2 -- -- 96
2020-01-21 05:00:00 6.2 22 Norte 40 Norte 2 -- -- 94
2020-01-21 04:00:00 6.1 18 Norte 40 Norte 2.4 -- -- 93
2020-01-21 03:00:00 6.3 21 Norte 41 Norte 1.4 -- -- 92
2020-01-21 02:00:00 6.6 21 Norte 53 Nordeste 2.6 -- -- 88
2020-01-21 01:00:00 6.8 20 Nordeste 51 Nordeste 1.2 -- -- 84
2020-01-21 00:00:00 7.5 26 Nordeste 63 Nordeste 0.4 -- -- 82
2020-01-20 23:00:00 7.5 30 Nordeste 72 Nordeste 1 -- -- 83
2020-01-20 22:00:00 7.3 39 Nordeste 78 Nordeste 0.6 -- -- 83
2020-01-20 21:00:00 7.9 33 Nordeste 69 Nordeste 0 -- -- 75
2020-01-20 20:00:00 8 30 Nordeste 61 Nordeste 0.4 -- -- 76
2020-01-20 19:00:00 8.6 31 Nordeste 67 Norte 0 -- -- 68
2020-01-20 18:00:00 8.7 28 Nordeste 70 Nordeste 0 -- -- 66
2020-01-20 17:00:00 8.8 36 Nordeste 73 Nordeste 0 -- -- 65
2020-01-20 16:00:00 10.2 34 Nordeste 67 Norte 0 -- -- 58
2020-01-20 15:00:00 9.7 27 Nordeste 54 Nordeste 0 -- -- 57
2020-01-20 14:00:00 10 30 Nordeste 55 Nordeste 0 -- -- 55
2020-01-20 13:00:00 10.2 26 Nordeste 54 Norte 0 -- -- 55
2020-01-20 12:00:00 9.9 29 Nordeste 48 Nordeste 0 -- -- 55
2020-01-20 11:00:00 9.1 18 Norte 38 Norte 0 -- -- 53
2020-01-20 10:00:00 8.5 19 Norte 42 Norte 0 -- -- 55
2020-01-20 09:00:00 8.7 23 Norte 46 Norte 0 -- -- 53
2020-01-20 08:00:00 9 21 Norte 42 Norte 0 -- -- 50
2020-01-20 07:00:00 9.5 24 Norte 46 Norte 0 -- -- 43
2020-01-20 06:00:00 9.5 21 Norte 41 Norte 0 -- -- 39
2020-01-20 05:00:00 9.5 21 Norte 36 Norte 0 -- -- 37
2020-01-20 04:00:00 9.2 18 Norte 38 Norte 0 -- -- 34
2020-01-20 03:00:00 9.1 21 Norte 41 Nordeste 0 -- -- 34
2020-01-20 02:00:00 9.3 21 Norte 39 Nordeste 0 -- -- 32
2020-01-20 01:00:00 9.4 19 Norte 40 Noroeste 0 -- -- 29
2020-01-20 00:00:00 9.5 18 Norte 37 Nordeste 0 -- -- 28
2020-01-19 23:00:00 9.3 20 Norte 41 Norte 0 -- -- 30
2020-01-19 22:00:00 9.4 21 Norte 40 Norte 0 -- -- 31
2020-01-19 21:00:00 9.5 19 Norte 38 Norte 0 -- -- 31
2020-01-19 20:00:00 9.8 16 Norte 35 Nordeste 0 -- -- 27
2020-01-19 19:00:00 9.9 19 Nordeste 41 Nordeste 0 -- -- 25
2020-01-19 18:00:00 9.4 9 Nordeste 39 Nordeste 0 -- -- 33
2020-01-19 17:00:00 11.2 21 Nordeste 36 Norte 0 -- -- 30
2020-01-19 16:00:00 10.7 6 Nordeste 16 Norte 0 -- -- 48
2020-01-19 15:00:00 10.3 6 Nordeste 14 Nordeste 0 -- -- 48
2020-01-19 14:00:00 10 7 Norte 15 Nordeste 0 -- -- 55
2020-01-19 13:00:00 9.8 6 Nordeste 22 Norte 0 -- -- 60
2020-01-19 12:00:00 8.6 11 Norte 26 Norte 0 -- -- 76
2020-01-19 11:00:00 7.8 14 Nordeste 26 Nordeste 0 -- -- 84
2020-01-19 10:00:00 7.1 14 Norte 29 Norte 0 -- -- 90
2020-01-19 09:00:00 6.9 13 Norte 26 Norte 0 -- -- 90
2020-01-19 08:00:00 7.3 12 Norte 38 Nordeste 0 -- -- 89
2020-01-19 07:00:00 8.1 17 Nordeste 30 Norte 0.2 -- -- 90
2020-01-19 06:00:00 7.8 11 Norte 22 Norte 0.2 -- -- 93
2020-01-19 05:00:00 8.2 11 Nordeste 21 Nordeste 0 -- -- 88
2020-01-19 04:00:00 8.6 8 Norte 17 Norte 0 -- -- 89
2020-01-19 03:00:00 8.5 4 Norte 12 Norte 0 -- -- 91
2020-01-19 02:00:00 8.8 5 Nordeste 15 Norte 0 -- -- 90
2020-01-19 01:00:00 8.7 8 Norte 13 Norte 0 -- -- 92
2020-01-19 00:00:00 8.4 4 Norte 8 Norte 0 -- -- 94
2020-01-18 23:00:00 8.7 0 Calma 5 Nordeste 0 -- -- 93
2020-01-18 22:00:00 8.6 0 Calma 4 Nordeste 0 -- -- 90
2020-01-18 21:00:00 8.8 0 Calma 4 Este 0 -- -- 86
2020-01-18 20:00:00 8.9 3 Este 7 Sur 0 -- -- 85
2020-01-18 19:00:00 10.1 6 Sur 14 Sur 0 -- -- 80
2020-01-18 18:00:00 10.8 6 Sur 19 Sur 0 -- -- 76
2020-01-18 17:00:00 12.4 12 Sur 25 Sur 0 -- -- 67
2020-01-18 16:00:00 13.3 11 Sur 28 Sudoeste 0 -- -- 63
2020-01-18 15:00:00 13.8 13 Sur 28 Sudoeste 0 -- -- 57
2020-01-18 14:00:00 13.8 8 Sur 16 Sur 0 -- -- 52
2020-01-18 13:00:00 12.6 5 Sur 11 Sudoeste 0 -- -- 51
2020-01-18 12:00:00 10.2 5 Nordeste 10 Norte 0 -- -- 58
2020-01-18 11:00:00 8.2 4 Nordeste 13 Nordeste 0 -- -- 64
2020-01-18 10:00:00 6.3 0 Calma 7 Este 0 -- -- 71
2020-01-18 09:00:00 5.6 0 Calma 12 Norte 0 -- -- 75
2020-01-18 08:00:00 5.8 3 Sur 10 Nordeste 0 -- -- 72
2020-01-18 07:00:00 6.1 6 Norte 14 Norte 0 -- -- 69
2020-01-18 06:00:00 6 3 Nordeste 19 Norte 0 -- -- 70
2020-01-18 05:00:00 6.1 10 Norte 18 Norte 0 -- -- 68
2020-01-18 04:00:00 5 0 Calma 10 Sudeste 0 -- -- 74
2020-01-18 03:00:00 5.9 4 Nordeste 11 Norte 0 -- -- 69
2020-01-18 02:00:00 6.3 0 Calma 18 Sudoeste 0 -- -- 62
2020-01-18 01:00:00 5.4 6 Sudoeste 14 Sudoeste 0 -- -- 65
2020-01-18 00:00:00 6.7 4 Sur 10 Sur 0 -- -- 60
2020-01-17 23:00:00 7.2 5 Sudoeste 9 Sudoeste 0 -- -- 58
2020-01-17 22:00:00 9.9 3 Oeste 21 Oeste 0 -- -- 48
2020-01-17 21:00:00 12.1 8 Oeste 27 Noroeste 0 -- -- 42
2020-01-17 20:00:00 12.5 5 Sudoeste 22 Sudoeste 0 -- -- 40
2020-01-17 19:00:00 13.2 14 Sudoeste 29 Sudoeste 0 -- -- 41
2020-01-17 18:00:00 13.9 15 Oeste 42 Oeste 0 -- -- 43
2020-01-17 17:00:00 14.9 9 Oeste 35 Oeste 0 -- -- 53
2020-01-17 16:00:00 15.8 15 Sudoeste 35 Oeste 0 -- -- 52
2020-01-17 15:00:00 16.5 10 Oeste 37 Sudoeste 0 -- -- 51
2020-01-17 14:00:00 16.8 12 Oeste 32 Sudoeste 0 -- -- 47
2020-01-17 13:00:00 16.7 19 Sudoeste 31 Sudoeste 0 -- -- 48
2020-01-17 12:00:00 15.5 14 Sudoeste 36 Oeste 0 -- -- 51
2020-01-17 11:00:00 13.8 10 Sudoeste 24 Sudoeste 0 -- -- 60
2020-01-17 10:00:00 6.9 0 Calma 4 Norte 0 -- -- 100
2020-01-17 09:00:00 4.9 3 Nordeste 11 Noroeste 0 -- -- 100
2020-01-17 08:00:00 3.3 3 Norte 6 Noroeste 0 -- -- 99
2020-01-17 07:00:00 2.9 3 Nordeste 5 Norte 0 -- -- 99
2020-01-17 06:00:00 3.1 0 Calma 5 Norte 0 -- -- 99
2020-01-17 05:00:00 3.7 2 Norte 4 Norte 0 -- -- 99
2020-01-17 04:00:00 4.7 0 Calma 6 Norte 0 -- -- 99
2020-01-17 03:00:00 5.7 0 Calma 5 Norte 0 -- -- 99
2020-01-17 02:00:00 5.9 3 Norte 5 Norte 0 -- -- 100
2020-01-17 01:00:00 5.8 0 Calma 5 Norte 0 -- -- 99
2020-01-17 00:00:00 5.4 3 Noroeste 6 Norte 0 -- -- 98
2020-01-16 23:00:00 6.1 0 Calma 3 Noroeste 0 -- -- 96
2020-01-16 22:00:00 7.2 0 Calma 3 Sudeste 0 -- -- 96
2020-01-16 21:00:00 6.5 0 Calma 5 Este 0 -- -- 94
2020-01-16 20:00:00 7.6 0 Calma 4 Sur 0 -- -- 91
2020-01-16 19:00:00 9.7 0 Calma 3 Este 0 -- -- 84
2020-01-16 18:00:00 12.4 3 Sudoeste 13 Sur 0 -- -- 75
2020-01-16 17:00:00 14.6 6 Sur 14 Sudoeste 0 -- -- 66
2020-01-16 16:00:00 15.4 8 Sur 18 Sudoeste 0 -- -- 60
2020-01-16 15:00:00 15.1 10 Sur 22 Sudoeste 0 -- -- 59
2020-01-16 14:00:00 14.7 12 Sur 20 Sudoeste 0 -- -- 66
2020-01-16 13:00:00 13.8 8 Sudoeste 16 Sudoeste 0 -- -- 65
2020-01-16 12:00:00 10.7 3 Norte 6 Norte 0 -- -- 69
2020-01-16 11:00:00 7.6 4 Norte 7 Nordeste 0 -- -- 76
2020-01-16 10:00:00 4.1 0 Calma 3 Norte 0 -- -- 92
2020-01-16 09:00:00 1.8 0 Calma 4 Norte 0 -- -- 95
2020-01-16 08:00:00 1.6 0 Calma 4 Este 0 -- -- 96
2020-01-16 07:00:00 1.6 0 Calma 6 Nordeste 0 -- -- 94
2020-01-16 06:00:00 2.1 2 Nordeste 6 Nordeste 0 -- -- 94
2020-01-16 05:00:00 2.1 0 Calma 6 Nordeste 0 -- -- 93
2020-01-16 04:00:00 2.5 0 Calma 4 Norte 0 -- -- 94
2020-01-16 03:00:00 2.5 2 Nordeste 6 Nordeste 0 -- -- 96
2020-01-16 02:00:00 2.7 0 Calma 4 Este 0 -- -- 95
2020-01-16 01:00:00 3.1 0 Calma 4 Este 0 -- -- 95
2020-01-16 00:00:00 3.2 0 Calma 6 Norte 0 -- -- 94
2020-01-15 23:00:00 3.3 0 Calma 6 Noroeste 0 -- -- 94
2020-01-15 22:00:00 4.1 3 Norte 5 Noroeste 0 -- -- 93
2020-01-15 21:00:00 5.4 2 Este 6 Norte 0 -- -- 90
2020-01-15 20:00:00 6.9 3 Nordeste 5 Noroeste 0 -- -- 87
2020-01-15 19:00:00 8.8 2 Nordeste 11 Sudoeste 0 -- -- 81
2020-01-15 18:00:00 10.3 6 Sur 23 Sudoeste 0 -- -- 73
2020-01-15 17:00:00 12.2 13 Sudoeste 22 Sudoeste 0 -- -- 64
2020-01-15 16:00:00 13.3 12 Sur 19 Sur 0 -- -- 57
2020-01-15 15:00:00 14.8 10 Sur 18 Sudoeste 0 -- -- 51
2020-01-15 14:00:00 13.9 10 Sur 18 Sur 0 -- -- 53
2020-01-15 13:00:00 11.4 5 Sudoeste 10 Sudoeste 0 -- -- 60
2020-01-15 12:00:00 8.7 2 Nordeste 9 Nordeste 0 -- -- 69
2020-01-15 11:00:00 5.9 6 Nordeste 10 Norte 0 -- -- 75
2020-01-15 10:00:00 2.2 0 Calma 4 Nordeste 0 -- -- 95
2020-01-15 09:00:00 0 2 Este 5 Nordeste 0 -- -- 98
2020-01-15 08:00:00 -0.8 0 Calma 3 Noroeste 0 -- -- 98
2020-01-15 07:00:00 -0.7 0 Calma 4 Sudeste 0 -- -- 97
2020-01-15 06:00:00 -0.5 0 Calma 4 Norte 0 -- -- 98
2020-01-15 05:00:00 -0.5 2 Nordeste 4 Nordeste 0 -- -- 97
2020-01-15 04:00:00 -0.4 0 Calma 3 Nordeste 0 -- -- 96
2020-01-15 03:00:00 -0.1 0 Calma 4 Nordeste 0 -- -- 95
2020-01-15 02:00:00 0.5 0 Calma 4 Norte 0 -- -- 95
2020-01-15 01:00:00 0.9 0 Calma 4 Norte 0 -- -- 95
2020-01-15 00:00:00 1.5 0 Calma 3 Nordeste 0 -- -- 94
2020-01-14 23:00:00 2.1 0 Calma 3 Noroeste 0 -- -- 94
2020-01-14 22:00:00 2.6 0 Calma 3 Noroeste 0 -- -- 92
2020-01-14 21:00:00 3.8 0 Calma 5 Norte 0 -- -- 88
2020-01-14 20:00:00 5 2 Norte 4 Norte 0 -- -- 87
2020-01-14 19:00:00 7.1 0 Calma 4 Norte 0 -- -- 82
2020-01-14 18:00:00 10.2 3 Sudeste 16 Sur 0 -- -- 72
2020-01-14 17:00:00 12.8 9 Sur 18 Sur 0 -- -- 47
2020-01-14 16:00:00 14.2 9 Sur 17 Sur 0 -- -- 46
2020-01-14 15:00:00 14.8 6 Sur 16 Sudoeste 0 -- -- 44
2020-01-14 14:00:00 13.8 6 Sur 15 Sudoeste 0 -- -- 49
2020-01-14 13:00:00 12 3 Noroeste 10 Nordeste 0 -- -- 51
2020-01-14 12:00:00 10.2 6 Nordeste 12 Nordeste 0 -- -- 55
2020-01-14 11:00:00 7.2 6 Nordeste 12 Norte 0 -- -- 67
2020-01-14 10:00:00 2.4 3 Norte 5 Norte 0 -- -- 91
2020-01-14 09:00:00 -0.5 2 Norte 5 Norte 0 -- -- 95
2020-01-14 08:00:00 -0.4 2 Norte 6 Nordeste 0 -- -- 97
2020-01-14 07:00:00 -0.7 0 Calma 6 Norte 0 -- -- 98
2020-01-14 06:00:00 -0.8 0 Calma 8 Norte 0 -- -- 98
2020-01-14 05:00:00 -0.8 2 Nordeste 5 Norte 0 -- -- 98
2020-01-14 04:00:00 -0.7 0 Calma 5 Norte 0 -- -- 98
2020-01-14 03:00:00 -0.4 0 Calma 4 Norte 0 -- -- 97
2020-01-14 02:00:00 0.1 4 Norte 5 Norte 0 -- -- 97
2020-01-14 01:00:00 0.6 0 Calma 5 Norte 0 -- -- 96
2020-01-14 00:00:00 1 0 Calma 3 Norte 0 -- -- 95
2020-01-13 23:00:00 2 2 Norte 6 Norte 0 -- -- 95
2020-01-13 22:00:00 2.9 0 Calma 5 Norte 0 -- -- 94
2020-01-13 21:00:00 4.4 0 Calma 4 Nordeste 0 -- -- 91
2020-01-13 20:00:00 6.7 3 Sudoeste 9 Sudoeste 0 -- -- 87
2020-01-13 19:00:00 8.1 5 Sur 10 Sudoeste 0 -- -- 85
2020-01-13 18:00:00 9 5 Sur 12 Sur 0 -- -- 82
2020-01-13 17:00:00 10.3 7 Sur 15 Sudoeste 0 -- -- 76
2020-01-13 16:00:00 11.1 9 Sudoeste 18 Sudoeste 0 -- -- 63
2020-01-13 15:00:00 11.8 8 Sudoeste 18 Sudoeste 0 -- -- 56
2020-01-13 14:00:00 12.1 8 Sur 18 Sudoeste 0 -- -- 53
2020-01-13 13:00:00 10.6 3 Sur 8 Norte 0 -- -- 55
2020-01-13 12:00:00 8.5 3 Norte 9 Nordeste 0 -- -- 60
2020-01-13 11:00:00 5.9 6 Norte 11 Nordeste 0 -- -- 69
2020-01-13 10:00:00 1.7 3 Noroeste 5 Norte 0 -- -- 92
2020-01-13 09:00:00 -0.7 0 Calma 6 Norte 0 -- -- 95
2020-01-13 08:00:00 -1.8 0 Calma 4 Norte 0 -- -- 95
2020-01-13 07:00:00 -1.7 2 Norte 4 Norte 0 -- -- 95
2020-01-13 06:00:00 -1.4 0 Calma 5 Norte 0 -- -- 95
2020-01-13 05:00:00 -1.4 0 Calma 5 Nordeste 0 -- -- 94
2020-01-13 04:00:00 -1.2 2 Norte 5 Norte 0 -- -- 94
2020-01-13 03:00:00 -1 2 Norte 4 Nordeste 0 -- -- 94
2020-01-13 02:00:00 -0.6 0 Calma 4 Nordeste 0 -- -- 94
2020-01-13 01:00:00 -0.2 2 Norte 4 Noroeste 0 -- -- 94
2020-01-13 00:00:00 0.4 0 Calma 4 Norte 0 -- -- 92
2020-01-12 23:00:00 1.2 0 Calma 5 Norte 0 -- -- 90
2020-01-12 22:00:00 2.4 3 Norte 5 Nordeste 0 -- -- 89
2020-01-12 21:00:00 3.6 0 Calma 4 Nordeste 0 -- -- 85
2020-01-12 20:00:00 5.3 0 Calma 5 Nordeste 0 -- -- 80
2020-01-12 19:00:00 7.7 0 Calma 9 Este 0 -- -- 74
2020-01-12 18:00:00 10.3 4 Norte 8 Norte 0 -- -- 66
2020-01-12 17:00:00 12.9 3 Noroeste 4 Noroeste 0 -- -- 56
2020-01-12 16:00:00 13.8 2 Este 9 Este 0 -- -- 53
2020-01-12 15:00:00 13.1 4 Norte 12 Nordeste 0 -- -- 55
2020-01-12 14:00:00 11.9 5 Norte 17 Norte 0 -- -- 46
2020-01-12 13:00:00 10.5 7 Norte 13 Norte 0 -- -- 58
2020-01-12 12:00:00 8.3 8 Norte 14 Norte 0 -- -- 71
2020-01-12 11:00:00 6 4 Nordeste 14 Nordeste 0 -- -- 82
2020-01-12 10:00:00 2.3 2 Nordeste 10 Norte 0 -- -- 100
2020-01-12 09:00:00 -0.6 2 Norte 5 Nordeste 0 -- -- 100
2020-01-12 08:00:00 -0.9 0 Calma 4 Nordeste 0 -- -- 99
2020-01-12 07:00:00 -1.5 0 Calma 3 Noroeste 0 -- -- 99
2020-01-12 06:00:00 -1.3 0 Calma 4 Norte 0 -- -- 99
2020-01-12 05:00:00 -1.1 0 Calma 4 Norte 0 -- -- 98
2020-01-12 04:00:00 -0.4 3 Nordeste 4 Nordeste 0 -- -- 98
2020-01-12 03:00:00 0 0 Calma 5 Nordeste 0 -- -- 98
2020-01-12 02:00:00 -0.2 0 Calma 5 Este 0 -- -- 98
2020-01-12 01:00:00 -0.3 0 Calma 4 Norte 0 -- -- 97
2020-01-12 00:00:00 0.3 0 Calma 4 Norte 0 -- -- 96
2020-01-11 23:00:00 0.8 0 Calma 4 Norte 0 -- -- 95
2020-01-11 22:00:00 1.6 0 Calma 3 Norte 0 -- -- 94
2020-01-11 21:00:00 2.6 0 Calma 3 Noroeste 0 -- -- 92
2020-01-11 20:00:00 4.1 0 Calma 3 Norte 0 -- -- 87
2020-01-11 19:00:00 6.1 4 Nordeste 10 Norte 0 -- -- 81
2020-01-11 18:00:00 7.9 0 Calma 11 Nordeste 0 -- -- 72
2020-01-11 17:00:00 9.6 6 Norte 14 Norte 0 -- -- 66
2020-01-11 16:00:00 10.1 9 Norte 18 Norte 0 -- -- 63
2020-01-11 15:00:00 10.4 8 Nordeste 17 Norte 0 -- -- 65
2020-01-11 14:00:00 9.7 9 Nordeste 27 Nordeste 0 -- -- 70
2020-01-11 13:00:00 8.8 14 Nordeste 27 Nordeste 0 -- -- 71
2020-01-11 12:00:00 8.6 9 Nordeste 24 Nordeste 0 -- -- 76
2020-01-11 11:00:00 7.3 11 Nordeste 23 Norte 0 -- -- 80
2020-01-11 10:00:00 5.7 10 Nordeste 19 Nordeste 0 -- -- 87
2020-01-11 09:00:00 3.8 4 Norte 14 Nordeste 0 -- -- 96
2020-01-11 08:00:00 2 2 Norte 12 Nordeste 0 -- -- 98
2020-01-11 07:00:00 1.7 4 Nordeste 9 Nordeste 0 -- -- 98
2020-01-11 06:00:00 3.3 3 Nordeste 12 Nordeste 0 -- -- 97
2020-01-11 05:00:00 2.4 4 Nordeste 8 Nordeste 0 -- -- 100
2020-01-11 04:00:00 2.5 3 Nordeste 8 Nordeste 0 -- -- 97
2020-01-11 03:00:00 3.1 0 Calma 6 Norte 0 -- -- 97
2020-01-11 02:00:00 4.3 3 Nordeste 11 Nordeste 0 -- -- 95
2020-01-11 01:00:00 4.1 3 Nordeste 12 Norte 0 -- -- 96
2020-01-11 00:00:00 4.5 0 Calma 14 Norte 0 -- -- 95
2020-01-10 23:00:00 4.8 5 Norte 13 Norte 0 -- -- 99
2020-01-10 22:00:00 4.2 2 Sudeste 5 Noroeste 0 -- -- 97
2020-01-10 21:00:00 5.3 3 Nordeste 9 Nordeste 0 -- -- 95
2020-01-10 20:00:00 5.4 0 Calma 4 Este 0 -- -- 94
2020-01-10 19:00:00 6.6 0 Calma 7 Este 0 -- -- 92
2020-01-10 18:00:00 8.2 3 Este 9 Este 0 -- -- 88
2020-01-10 17:00:00 10.7 2 Este 8 Nordeste 0 -- -- 88
2020-01-10 16:00:00 10.6 0 Calma 6 Nordeste 0 -- -- 89
2020-01-10 15:00:00 10.5 6 Sudoeste 16 Sur 0 -- -- 88
2020-01-10 14:00:00 9.9 5 Sur 10 Sur 0 -- -- 91
2020-01-10 13:00:00 8.7 2 Noroeste 10 Nordeste 0.6 -- -- 98
2020-01-10 12:00:00 7.8 5 Norte 15 Norte 1.8 -- -- 99
2020-01-10 11:00:00 7.2 11 Norte 17 Norte 2.8 -- -- 98
2020-01-10 10:00:00 7.4 8 Nordeste 14 Norte 0.4 -- -- 97
2020-01-10 09:00:00 7.2 8 Norte 13 Norte 0 -- -- 98
2020-01-10 08:00:00 7.1 9 Nordeste 17 Norte 0.6 -- -- 98
2020-01-10 07:00:00 7.4 9 Nordeste 17 Nordeste 1.8 -- -- 97
2020-01-10 06:00:00 7.9 4 Norte 10 Norte 0.2 -- -- 93
2020-01-10 05:00:00 7.8 0 Calma 10 Norte 0 -- -- 97
2020-01-10 04:00:00 7.3 3 Norte 5 Norte 0 -- -- 99
2020-01-10 03:00:00 6.8 0 Calma 4 Nordeste 0 -- -- 99
2020-01-10 02:00:00 6.4 3 Norte 6 Norte 0 -- -- 99
2020-01-10 01:00:00 5.8 0 Calma 4 Este 0 -- -- 99
2020-01-10 00:00:00 5.8 2 Nordeste 6 Nordeste 0 -- -- 98
2020-01-09 23:00:00 6.1 0 Calma 4 Noroeste 0 -- -- 97
2020-01-09 22:00:00 6.6 0 Calma 7 Sur 0 -- -- 96
2020-01-09 21:00:00 7.5 0 Calma 9 Sur 0 -- -- 95
2020-01-09 20:00:00 8.2 3 Sudeste 7 Sudoeste 0 -- -- 93
2020-01-09 19:00:00 9.1 5 Sudoeste 9 Sudoeste 0 -- -- 91
2020-01-09 18:00:00 10.2 5 Sur 19 Sur 0 -- -- 86
2020-01-09 17:00:00 12.2 11 Sur 21 Sudoeste 0 -- -- 77
2020-01-09 16:00:00 13 9 Sur 21 Sur 0 -- -- 73
2020-01-09 15:00:00 13.3 8 Sur 19 Sur 0 -- -- 74
2020-01-09 14:00:00 12.5 7 Sudoeste 15 Sudoeste 0 -- -- 77
2020-01-09 13:00:00 12 10 Sur 16 Sur 0 -- -- 80
2020-01-09 12:00:00 10.4 4 Sur 8 Sudoeste 0 -- -- 87
2020-01-09 11:00:00 7.6 2 Nordeste 8 Norte 0 -- -- 93
2020-01-09 10:00:00 4.2 3 Norte 6 Norte 0 -- -- 100
2020-01-09 09:00:00 2.5 0 Calma 3 Este 0 -- -- 100
2020-01-09 08:00:00 1.3 0 Calma 5 Norte 0 -- -- 99
2020-01-09 07:00:00 1.5 2 Norte 4 Norte 0 -- -- 99
2020-01-09 06:00:00 1.6 2 Norte 4 Nordeste 0 -- -- 99
2020-01-09 05:00:00 2.1 0 Calma 4 Nordeste 0 -- -- 99
2020-01-09 04:00:00 2.3 2 Norte 4 Noroeste 0 -- -- 99
2020-01-09 03:00:00 2.4 0 Calma 3 Norte 0 -- -- 98
2020-01-09 02:00:00 3.2 0 Calma 4 Norte 0 -- -- 98
2020-01-09 01:00:00 4 3 Norte 5 Norte 0 -- -- 98
2020-01-09 00:00:00 4.3 2 Norte 4 Nordeste 0 -- -- 96
2020-01-08 23:00:00 5.4 2 Este 7 Noroeste 0 -- -- 96
2020-01-08 22:00:00 6.2 2 Norte 8 Este 0 -- -- 95
2020-01-08 21:00:00 6.8 2 Este 4 Este 0 -- -- 94
2020-01-08 20:00:00 7.8 0 Calma 2 Nordeste 0 -- -- 90
2020-01-08 19:00:00 9.5 0 Calma 4 Sudeste 0 -- -- 86
2020-01-08 18:00:00 11.8 0 Calma 5 Sudeste 0 -- -- 78
2020-01-08 17:00:00 14.2 4 Sur 14 Sudeste 0 -- -- 73
2020-01-08 16:00:00 16.6 8 Sudeste 16 Sudeste 0 -- -- 64
2020-01-08 15:00:00 16.2 2 Norte 8 Noroeste 0 -- -- 58
2020-01-08 14:00:00 15.4 3 Oeste 10 Sudoeste 0 -- -- 63
2020-01-08 13:00:00 14.4 3 Sur 9 Este 0 -- -- 67
2020-01-08 12:00:00 12.3 2 Nordeste 8 Este 0 -- -- 68
2020-01-08 11:00:00 8.4 3 Nordeste 6 Este 0 -- -- 73
2020-01-08 10:00:00 4.8 0 Calma 5 Este 0 -- -- 84
2020-01-08 09:00:00 2.9 3 Este 8 Este 0 -- -- 88
2020-01-08 08:00:00 2.3 0 Calma 9 Nordeste 0 -- -- 91
2020-01-08 07:00:00 2.3 0 Calma 5 Nordeste 0 -- -- 91
2020-01-08 06:00:00 2.6 0 Calma 12 Norte 0 -- -- 89
2020-01-08 05:00:00 2.5 0 Calma 8 Norte 0 -- -- 89
2020-01-08 04:00:00 2 4 Norte 8 Norte 0 -- -- 92
2020-01-08 03:00:00 1.4 3 Nordeste 6 Norte 0 -- -- 93
2020-01-08 02:00:00 1.7 0 Calma 6 Norte 0 -- -- 89
2020-01-08 01:00:00 2.5 0 Calma 7 Nordeste 0 -- -- 87
2020-01-08 00:00:00 2.6 0 Calma 5 Norte 0 -- -- 88
2020-01-07 23:00:00 2.7 0 Calma 3 Norte 0 -- -- 89
2020-01-07 22:00:00 2.9 0 Calma 3 Norte 0 -- -- 88
2020-01-07 21:00:00 3.8 0 Calma 4 Nordeste 0 -- -- 85
2020-01-07 20:00:00 5 0 Calma 6 Norte 0 -- -- 81
2020-01-07 19:00:00 6.3 0 Calma 7 Nordeste 0 -- -- 77
2020-01-07 18:00:00 8.2 3 Nordeste 13 Nordeste 0 -- -- 71
2020-01-07 17:00:00 11.3 2 Nordeste 12 Nordeste 0 -- -- 62
2020-01-07 16:00:00 13.1 3 Nordeste 13 Nordeste 0 -- -- 57
2020-01-07 15:00:00 12.7 5 Nordeste 14 Norte 0 -- -- 56
2020-01-07 14:00:00 11.9 6 Nordeste 15 Nordeste 0 -- -- 58
2020-01-07 13:00:00 10.3 6 Nordeste 14 Norte 0 -- -- 62
2020-01-07 12:00:00 8.4 5 Nordeste 14 Nordeste 0 -- -- 67
2020-01-07 11:00:00 6.5 8 Nordeste 14 Nordeste 0 -- -- 74
2020-01-07 10:00:00 3.8 3 Nordeste 12 Nordeste 0 -- -- 85
2020-01-07 09:00:00 1 2 Nordeste 5 Nordeste 0 -- -- 95
2020-01-07 08:00:00 1.1 0 Calma 6 Nordeste 0 -- -- 93
2020-01-07 07:00:00 1.1 0 Calma 6 Norte 0 -- -- 94
2020-01-07 06:00:00 1.4 2 Nordeste 6 Norte 0 -- -- 93
2020-01-07 05:00:00 1.5 0 Calma 9 Norte 0 -- -- 93
2020-01-07 04:00:00 1.8 0 Calma 6 Norte 0 -- -- 95
2020-01-07 03:00:00 2.6 3 Nordeste 8 Este 0 -- -- 95
2020-01-07 02:00:00 2.5 0 Calma 6 Este 0 -- -- 97
2020-01-07 01:00:00 2.9 0 Calma 4 Nordeste 0 -- -- 97
2020-01-07 00:00:00 2.6 0 Calma 6 Nordeste 0 -- -- 96
2020-01-06 23:00:00 3.3 0 Calma 4 Este 0 -- -- 96
2020-01-06 22:00:00 3.9 0 Calma 3 Noroeste 0 -- -- 95
2020-01-06 21:00:00 5.1 0 Calma 5 Norte 0 -- -- 94
2020-01-06 20:00:00 6.1 2 Norte 5 Noroeste 0 -- -- 92
2020-01-06 19:00:00 8.1 0 Calma 6 Este 0 -- -- 87
2020-01-06 18:00:00 10.6 4 Sudeste 12 Sudoeste 0 -- -- 80
2020-01-06 17:00:00 13.1 8 Sudoeste 15 Sudoeste 0 -- -- 71
2020-01-06 16:00:00 14.8 4 Sudoeste 10 Sur 0 -- -- 57
2020-01-06 15:00:00 14.4 3 Sudoeste 7 Sudoeste 0 -- -- 56
2020-01-06 14:00:00 13.6 3 Sur 6 Noroeste 0 -- -- 58
2020-01-06 13:00:00 11.9 3 Norte 8 Norte 0 -- -- 66
2020-01-06 12:00:00 10 4 Nordeste 9 Nordeste 0 -- -- 70
2020-01-06 11:00:00 6.9 0 Calma 9 Nordeste 0 -- -- 84
2020-01-06 10:00:00 3.1 2 Nordeste 5 Nordeste 0 -- -- 100